Time;durP1;ratioP1;P1;durP2;ratioP2;P2;SDS_P1;SDS_P2;PMS_P1;PMS_P2;Temp;Humidity;BMP_temperature;BMP_pressure;BME280_temperature;BME280_humidity;BME280_pressure;Samples;Min_cycle;Max_cycle;Signal;HPM_P1;HPM_P2
2022/08/18 00:01:21;;;;;;;11.30;6.50;;;20.80;84.60;;;;;;5014904;28;20580;-70
2022/08/18 00:04:06;;;;;;;7.83;7.03;;;21.00;86.90;;;;;;5022664;28;20437;-71
2022/08/18 00:06:52;;;;;;;20.33;7.87;;;21.20;87.70;;;;;;5029636;28;20507;-70
2022/08/18 00:09:40;;;;;;;12.00;8.03;;;21.40;87.50;;;;;;5029897;28;20432;-71
2022/08/18 00:12:29;;;;;;;9.30;6.80;;;21.60;87.60;;;;;;5024410;28;20436;-71
2022/08/18 00:15:17;;;;;;;11.90;7.00;;;21.80;87.10;;;;;;5027537;28;20436;-71
2022/08/18 00:18:02;;;;;;;8.00;7.20;;;21.90;86.90;;;;;;5030701;28;20476;-70
2022/08/18 00:20:48;;;;;;;8.07;7.20;;;22.00;86.70;;;;;;5016577;28;20537;-71
2022/08/18 00:23:34;;;;;;;7.60;6.40;;;22.10;86.80;;;;;;5024485;28;20978;-70
2022/08/18 00:26:21;;;;;;;8.20;6.17;;;22.10;86.30;;;;;;5018739;28;20527;-70
2022/08/18 00:29:07;;;;;;;8.70;7.30;;;22.10;86.10;;;;;;5026985;28;20823;-71
2022/08/18 00:31:52;;;;;;;8.07;6.00;;;22.20;85.70;;;;;;5009642;28;20446;-71
2022/08/18 00:34:38;;;;;;;10.67;6.70;;;22.20;85.70;;;;;;5020342;28;20882;-71
2022/08/18 00:37:24;;;;;;;9.50;6.70;;;22.20;85.70;;;;;;5012850;28;20470;-70
2022/08/18 00:40:14;;;;;;;19.63;6.80;;;22.30;85.80;;;;;;5009170;28;20854;-71
2022/08/18 00:43:03;;;;;;;8.20;6.80;;;22.20;85.70;;;;;;5016779;28;20508;-71
2022/08/18 00:45:49;;;;;;;10.60;7.47;;;22.20;85.70;;;;;;5020838;28;20420;-71
2022/08/18 00:48:35;;;;;;;9.00;6.53;;;22.20;85.70;;;;;;5027041;28;21199;-71
2022/08/18 00:51:26;;;;;;;12.60;5.83;;;22.20;85.70;;;;;;5012714;28;20459;-71
2022/08/18 00:54:18;;;;;;;6.63;6.03;;;22.20;85.70;;;;;;5025994;28;20460;-71
2022/08/18 00:57:06;;;;;;;8.83;5.43;;;22.20;85.40;;;;;;5022539;28;20469;-71
2022/08/18 00:59:57;;;;;;;8.43;6.27;;;22.30;84.50;;;;;;5022929;28;20557;-71
2022/08/18 01:02:52;;;;;;;9.00;6.10;;;22.20;83.90;;;;;;5030004;28;20439;-71
2022/08/18 01:05:43;;;;;;;8.90;5.40;;;22.30;83.40;;;;;;5005233;28;20433;-71
2022/08/18 01:08:28;;;;;;;8.20;5.50;;;22.20;83.60;;;;;;5019424;28;20445;-71
2022/08/18 01:11:14;;;;;;;8.77;5.00;;;22.20;83.00;;;;;;5013580;28;20443;-71
2022/08/18 01:14:00;;;;;;;8.33;6.00;;;22.20;83.50;;;;;;5014585;28;20526;-71
2022/08/18 01:23:03;;;;;;;5.87;5.03;;;22.20;83.10;;;;;;5026430;28;20440;-71
2022/08/18 01:26:03;;;;;;;10.33;5.10;;;22.10;83.30;;;;;;5025191;28;20428;-71
2022/08/18 01:28:49;;;;;;;6.50;4.77;;;22.20;82.80;;;;;;5012912;28;20449;-71
2022/08/18 01:31:38;;;;;;;6.27;5.30;;;22.20;83.00;;;;;;5020304;28;20447;-71
2022/08/18 01:34:27;;;;;;;15.67;4.70;;;22.20;82.80;;;;;;5018551;28;20997;-70
2022/08/18 01:37:12;;;;;;;6.30;5.00;;;22.10;82.70;;;;;;5025984;28;20588;-71
2022/08/18 01:39:59;;;;;;;5.60;5.00;;;22.10;82.90;;;;;;5005755;28;20815;-71
2022/08/18 01:42:45;;;;;;;9.57;6.20;;;22.10;83.00;;;;;;5016677;28;20448;-70
2022/08/18 01:45:32;;;;;;;6.27;4.83;;;22.10;82.90;;;;;;5011065;28;20612;-71
2022/08/18 01:48:18;;;;;;;6.20;5.00;;;22.10;82.80;;;;;;5013756;28;20421;-70
2022/08/18 01:51:05;;;;;;;5.63;5.07;;;22.00;82.90;;;;;;5013460;28;20615;-71
2022/08/18 01:53:51;;;;;;;7.50;5.00;;;22.00;82.70;;;;;;5013999;28;20511;-71
2022/08/18 01:56:39;;;;;;;5.10;4.60;;;22.00;82.20;;;;;;5009664;28;20421;-71
2022/08/18 01:59:25;;;;;;;6.80;4.87;;;22.10;82.30;;;;;;5010386;28;20523;-70
2022/08/18 02:02:16;;;;;;;7.73;4.83;;;22.10;82.10;;;;;;5014332;28;21005;-70
2022/08/18 02:05:05;;;;;;;6.13;4.60;;;22.10;81.60;;;;;;5016193;28;20483;-71
2022/08/18 02:07:51;;;;;;;5.17;4.67;;;22.10;81.90;;;;;;5014868;28;20444;-71
2022/08/18 02:10:36;;;;;;;7.27;5.03;;;22.10;82.00;;;;;;5006982;28;20978;-71
2022/08/18 02:13:23;;;;;;;7.77;7.00;;;22.10;81.20;;;;;;5015711;28;20831;-71
2022/08/18 02:16:09;;;;;;;6.97;5.20;;;22.10;80.90;;;;;;5014914;28;20433;-71
2022/08/18 02:18:55;;;;;;;9.20;5.33;;;22.10;81.40;;;;;;5008613;28;21033;-70
2022/08/18 02:21:40;;;;;;;6.90;5.00;;;21.90;80.90;;;;;;5018151;28;20491;-71
2022/08/18 02:24:26;;;;;;;6.20;5.07;;;21.80;81.00;;;;;;5014370;28;20526;-70
2022/08/18 02:27:14;;;;;;;6.10;5.10;;;21.90;81.00;;;;;;5019288;28;20423;-71
2022/08/18 02:30:04;;;;;;;6.00;5.40;;;21.90;81.30;;;;;;5009840;28;20489;-71
2022/08/18 02:32:50;;;;;;;5.67;4.77;;;21.90;81.40;;;;;;5018668;28;20524;-71
2022/08/18 02:35:36;;;;;;;9.40;5.83;;;21.90;82.30;;;;;;5018539;28;20424;-71
2022/08/18 02:38:22;;;;;;;7.37;5.20;;;21.90;82.30;;;;;;5017233;28;20475;-71
2022/08/18 02:41:10;;;;;;;5.30;4.23;;;21.90;82.40;;;;;;5014470;28;20512;-71
2022/08/18 02:43:55;;;;;;;9.07;5.57;;;21.90;82.90;;;;;;5009244;28;20569;-71
2022/08/18 02:46:42;;;;;;;6.90;4.90;;;21.80;82.80;;;;;;5011098;28;20430;-71
2022/08/18 02:49:28;;;;;;;6.77;4.73;;;21.80;82.90;;;;;;5009048;28;20519;-70
2022/08/18 02:52:13;;;;;;;5.80;4.80;;;21.80;83.10;;;;;;5012519;28;20399;-71
2022/08/18 02:55:00;;;;;;;16.43;5.20;;;21.80;83.60;;;;;;5011052;28;20963;-71
2022/08/18 02:57:47;;;;;;;6.17;5.27;;;21.70;84.60;;;;;;5017067;28;20473;-71
2022/08/18 03:00:33;;;;;;;6.90;5.43;;;21.70;84.80;;;;;;5016610;28;20833;-71
2022/08/18 03:03:20;;;;;;;5.87;5.10;;;21.60;85.20;;;;;;5012353;28;20496;-71
2022/08/18 03:06:06;;;;;;;5.70;4.30;;;21.50;86.10;;;;;;5015469;28;20476;-71
2022/08/18 03:08:53;;;;;;;7.63;5.77;;;21.60;86.40;;;;;;5007594;28;20446;-71
2022/08/18 03:11:39;;;;;;;7.50;5.00;;;21.60;86.00;;;;;;5020707;28;21038;-71
2022/08/18 03:14:24;;;;;;;7.77;5.63;;;21.50;87.10;;;;;;5015963;28;20446;-71
2022/08/18 03:17:13;;;;;;;6.27;4.70;;;21.40;87.90;;;;;;5017066;28;20443;-71
2022/08/18 03:20:00;;;;;;;5.77;5.10;;;21.40;88.40;;;;;;5015605;28;20943;-70
2022/08/18 03:22:46;;;;;;;6.33;5.33;;;21.40;88.10;;;;;;5018231;28;20448;-71
2022/08/18 03:25:32;;;;;;;5.33;4.83;;;21.50;87.90;;;;;;5018774;28;20773;-71
2022/08/18 03:28:18;;;;;;;12.90;4.43;;;21.40;88.80;;;;;;5015788;28;21002;-70
2022/08/18 03:31:03;;;;;;;5.07;4.57;;;21.40;90.10;;;;;;5015845;28;20441;-70
2022/08/18 03:33:50;;;;;;;5.93;5.10;;;21.30;90.80;;;;;;5022034;28;20449;-70
2022/08/18 03:36:38;;;;;;;6.37;5.10;;;21.20;90.80;;;;;;5018851;28;20432;-70
2022/08/18 03:39:26;;;;;;;7.30;5.10;;;21.30;90.90;;;;;;5009622;28;21065;-70
2022/08/18 03:42:12;;;;;;;5.93;5.33;;;21.30;90.90;;;;;;5021237;28;20474;-71
2022/08/18 03:44:58;;;;;;;5.73;5.13;;;21.30;90.90;;;;;;5020471;28;20556;-70
2022/08/18 03:47:45;;;;;;;6.53;5.23;;;21.30;91.90;;;;;;5018291;28;20433;-70
2022/08/18 03:50:32;;;;;;;7.13;5.40;;;21.20;92.90;;;;;;5013373;28;20429;-71
2022/08/18 03:53:19;;;;;;;5.87;5.33;;;21.20;92.90;;;;;;5017615;28;20819;-71
2022/08/18 03:56:14;;;;;;;9.90;5.37;;;21.20;92.90;;;;;;5017181;28;20429;-70
2022/08/18 03:59:02;;;;;;;8.60;4.57;;;21.20;93.40;;;;;;5014719;28;20476;-71
2022/08/18 04:01:50;;;;;;;5.60;4.10;;;21.10;93.60;;;;;;5012850;28;20930;-71
2022/08/18 04:04:37;;;;;;;7.10;5.23;;;21.10;94.30;;;;;;5020350;28;20795;-71
2022/08/18 04:07:22;;;;;;;10.63;5.07;;;21.20;94.00;;;;;;5013000;28;20979;-71
2022/08/18 04:10:10;;;;;;;6.20;5.43;;;21.20;93.80;;;;;;5021548;28;20425;-71
2022/08/18 04:12:56;;;;;;;9.10;5.97;;;21.10;93.90;;;;;;5017637;28;20567;-71
2022/08/18 04:15:41;;;;;;;10.10;5.47;;;21.10;94.00;;;;;;5020060;28;20400;-70
2022/08/18 04:18:27;;;;;;;5.77;5.13;;;21.10;94.50;;;;;;5012928;28;20511;-71
2022/08/18 04:21:13;;;;;;;6.20;5.60;;;21.00;94.50;;;;;;5017885;28;20504;-71
2022/08/18 04:24:03;;;;;;;7.90;5.33;;;21.00;94.60;;;;;;5019172;28;20443;-71
2022/08/18 04:26:50;;;;;;;5.40;4.90;;;20.90;95.10;;;;;;5014272;28;20433;-71
2022/08/18 04:29:36;;;;;;;5.27;4.77;;;21.00;95.50;;;;;;5012206;28;20449;-71
2022/08/18 04:32:22;;;;;;;8.33;5.80;;;21.00;96.00;;;;;;5015558;28;20436;-71
2022/08/18 04:35:08;;;;;;;6.50;5.87;;;21.00;96.30;;;;;;5022536;28;20428;-70
2022/08/18 04:37:54;;;;;;;5.87;4.77;;;20.90;98.30;;;;;;5010719;28;20612;-70
2022/08/18 04:40:40;;;;;;;7.90;5.60;;;20.90;98.30;;;;;;5016230;28;20421;-71
2022/08/18 04:43:27;;;;;;;10.60;5.70;;;21.00;99.90;;;;;;5014204;28;20970;-71
2022/08/18 04:46:13;;;;;;;6.43;5.37;;;20.90;99.90;;;;;;5013035;28;20428;-71
2022/08/18 04:48:59;;;;;;;7.17;5.20;;;20.80;99.90;;;;;;5014086;28;20527;-71
2022/08/18 04:53:43;;;;;;;6.57;5.60;;;20.80;99.90;;;;;;5015639;28;20516;-71
2022/08/18 04:54:53;;;;;;;6.23;5.60;;;20.80;99.90;;;;;;5015885;28;20434;-72
2022/08/18 04:57:41;;;;;;;8.97;5.90;;;20.80;99.90;;;;;;5007538;28;21038;-71
2022/08/18 05:00:28;;;;;;;6.90;6.20;;;20.70;99.90;;;;;;5014999;28;21089;-72
2022/08/18 05:03:13;;;;;;;6.07;5.37;;;20.60;99.90;;;;;;5010805;28;21070;-71
2022/08/18 05:05:59;;;;;;;7.63;6.60;;;20.70;99.90;;;;;;5016300;28;21050;-72
2022/08/18 05:08:46;;;;;;;8.33;6.63;;;20.60;99.90;;;;;;5015918;28;20441;-71
2022/08/18 05:11:33;;;;;;;7.20;6.10;;;20.50;99.90;;;;;;5013043;28;20442;-72
2022/08/18 05:14:20;;;;;;;15.10;7.40;;;20.60;99.90;;;;;;5014500;28;20836;-71
2022/08/18 05:17:07;;;;;;;8.00;5.90;;;20.60;99.90;;;;;;5014218;28;20453;-71
2022/08/18 05:19:53;;;;;;;8.73;6.47;;;20.70;99.90;;;;;;5021874;28;20467;-72
2022/08/18 05:22:39;;;;;;;6.87;5.80;;;20.70;99.90;;;;;;5015007;28;21065;-72
2022/08/18 05:25:25;;;;;;;7.60;5.50;;;20.80;99.90;;;;;;5013147;28;20444;-72
2022/08/18 05:28:10;;;;;;;6.37;5.77;;;20.80;99.90;;;;;;5005383;28;20572;-72
2022/08/18 05:30:56;;;;;;;7.13;4.77;;;20.80;99.90;;;;;;5011179;28;20569;-72
2022/08/18 05:33:44;;;;;;;6.50;5.53;;;20.70;99.90;;;;;;5020576;28;20456;-72
2022/08/18 05:36:56;;;;;;;9.67;6.50;;;20.70;99.90;;;;;;5012541;28;20404;-71
2022/08/18 05:39:53;;;;;;;7.70;6.43;;;20.60;99.90;;;;;;5014761;28;20519;-71
2022/08/18 05:42:40;;;;;;;6.00;5.40;;;20.70;99.90;;;;;;5012599;28;20930;-71
2022/08/18 05:45:27;;;;;;;9.80;5.90;;;20.60;99.90;;;;;;5012241;28;20434;-72
2022/08/18 05:48:14;;;;;;;7.40;6.70;;;20.60;99.90;;;;;;5014327;28;20444;-72
2022/08/18 05:51:11;;;;;;;6.63;5.70;;;20.60;99.90;;;;;;5022193;28;20425;-72
2022/08/18 05:57:14;;;;;;;6.47;5.40;;;20.50;99.90;;;;;;4973517;28;20453;-72
2022/08/18 06:00:03;;;;;;;6.03;5.43;;;20.50;99.90;;;;;;5016379;28;20612;-72
2022/08/18 06:02:58;;;;;;;8.47;5.80;;;20.50;99.90;;;;;;5011271;28;20560;-72
2022/08/18 06:05:52;;;;;;;9.80;5.93;;;20.60;99.90;;;;;;5012508;28;20488;-72
2022/08/18 06:08:43;;;;;;;7.73;5.67;;;20.60;99.90;;;;;;5009348;28;20824;-72
2022/08/18 06:11:28;;;;;;;7.67;5.97;;;20.60;99.90;;;;;;5017122;28;20532;-70
2022/08/18 06:14:14;;;;;;;7.70;5.33;;;20.70;99.90;;;;;;5013275;28;20461;-71
2022/08/18 06:17:12;;;;;;;6.07;5.47;;;20.80;99.90;;;;;;5009903;28;20808;-71
2022/08/18 06:20:09;;;;;;;6.07;5.50;;;20.80;99.90;;;;;;5012901;28;20485;-71
2022/08/18 06:23:02;;;;;;;8.87;5.60;;;20.80;99.90;;;;;;5008502;28;20449;-71
2022/08/18 06:26:03;;;;;;;7.63;5.90;;;20.80;99.90;;;;;;5013157;28;20800;-72
2022/08/18 06:29:01;;;;;;;8.50;6.23;;;20.90;99.90;;;;;;5010574;28;20428;-72
2022/08/18 06:31:55;;;;;;;9.07;5.97;;;20.80;99.90;;;;;;5017033;28;20937;-72
2022/08/18 06:34:55;;;;;;;9.03;6.63;;;20.90;99.90;;;;;;5017402;28;20432;-72
2022/08/18 06:41:02;;;;;;;7.30;6.40;;;21.00;99.90;;;;;;5011964;28;20472;-72
2022/08/18 06:43:59;;;;;;;8.43;6.50;;;21.00;99.90;;;;;;5015281;28;20437;-71
2022/08/18 06:46:49;;;;;;;7.23;5.87;;;21.10;99.90;;;;;;5010866;28;20457;-72
2022/08/18 06:49:41;;;;;;;8.27;6.47;;;21.10;99.90;;;;;;5018156;28;20444;-72
2022/08/18 06:52:29;;;;;;;9.70;6.40;;;21.20;99.90;;;;;;5012365;28;20516;-71
2022/08/18 06:55:18;;;;;;;9.50;6.80;;;21.20;99.90;;;;;;5018341;28;20468;-71
2022/08/18 06:58:25;;;;;;;9.93;7.70;;;21.30;99.90;;;;;;5009018;28;20933;-72
2022/08/18 07:01:10;;;;;;;7.97;7.17;;;21.30;99.90;;;;;;5019608;28;21045;-70
2022/08/18 07:03:57;;;;;;;8.03;7.27;;;21.30;99.90;;;;;;5019164;28;20450;-72
2022/08/18 07:06:43;;;;;;;8.00;6.97;;;21.20;99.90;;;;;;5015546;28;20534;-72
2022/08/18 07:09:34;;;;;;;7.07;6.37;;;21.20;99.90;;;;;;5019043;28;20473;-72
2022/08/18 07:12:23;;;;;;;7.63;6.50;;;21.30;99.90;;;;;;5017347;28;20448;-72
2022/08/18 07:15:12;;;;;;;8.57;6.80;;;21.30;99.90;;;;;;5017320;28;20422;-72
2022/08/18 07:18:06;;;;;;;7.93;5.67;;;21.30;99.90;;;;;;5011977;28;20445;-72
2022/08/18 07:20:54;;;;;;;8.40;6.97;;;21.40;99.90;;;;;;5016498;28;20444;-71
2022/08/18 07:23:40;;;;;;;7.63;6.27;;;21.40;99.90;;;;;;5012739;28;20451;-72
2022/08/18 07:26:26;;;;;;;9.60;7.20;;;21.40;99.90;;;;;;5011591;28;20534;-72
2022/08/18 07:29:15;;;;;;;8.80;6.73;;;21.40;99.90;;;;;;5026097;28;20511;-72
2022/08/18 07:32:07;;;;;;;8.60;6.90;;;21.40;99.90;;;;;;5025573;28;20452;-72
2022/08/18 07:34:57;;;;;;;7.97;7.17;;;21.40;99.90;;;;;;5017135;28;20418;-72
2022/08/18 07:37:49;;;;;;;7.43;6.60;;;21.30;99.90;;;;;;5008289;28;20449;-72
2022/08/18 07:40:39;;;;;;;9.60;7.27;;;21.20;99.90;;;;;;5012054;28;20558;-71
2022/08/18 07:43:39;;;;;;;11.90;6.80;;;21.30;99.90;;;;;;5014790;28;20453;-72
2022/08/18 07:46:31;;;;;;;8.03;6.40;;;21.30;99.90;;;;;;5009690;28;20464;-71
2022/08/18 07:49:22;;;;;;;7.93;7.13;;;21.30;99.90;;;;;;5018399;28;20434;-71
2022/08/18 07:52:15;;;;;;;9.03;6.97;;;21.30;99.90;;;;;;5019875;28;21700;-72
2022/08/18 07:55:10;;;;;;;9.13;6.97;;;21.30;99.90;;;;;;5013117;28;20422;-72
2022/08/18 07:58:04;;;;;;;7.90;6.80;;;21.30;99.90;;;;;;5012874;28;20931;-71
2022/08/18 08:00:57;;;;;;;7.30;6.60;;;21.30;99.90;;;;;;5012098;28;20425;-71
2022/08/18 08:03:50;;;;;;;9.93;8.87;;;21.40;99.90;;;;;;5015583;28;20496;-72
2022/08/18 08:06:43;;;;;;;9.30;7.33;;;21.40;99.90;;;;;;5015212;28;20544;-71
2022/08/18 08:09:36;;;;;;;8.43;6.17;;;21.40;99.90;;;;;;5015368;28;20421;-70
2022/08/18 08:12:32;;;;;;;8.23;6.90;;;21.40;99.90;;;;;;5017237;28;20428;-72
2022/08/18 08:15:26;;;;;;;10.37;6.70;;;21.50;99.90;;;;;;5008537;28;20441;-71
2022/08/18 08:18:17;;;;;;;7.80;7.00;;;21.40;99.90;;;;;;5013658;28;20437;-71
2022/08/18 08:21:08;;;;;;;8.77;7.03;;;21.50;99.90;;;;;;5015928;28;20788;-72
2022/08/18 08:24:10;;;;;;;9.07;6.50;;;21.50;99.90;;;;;;5014472;28;20935;-72
2022/08/18 08:27:06;;;;;;;8.40;7.60;;;21.40;99.90;;;;;;5010816;28;20521;-72
2022/08/18 08:30:01;;;;;;;8.20;7.27;;;21.40;99.90;;;;;;5012755;28;20426;-71
2022/08/18 08:33:00;;;;;;;9.20;6.80;;;21.40;99.90;;;;;;5016412;28;20535;-72
2022/08/18 08:35:52;;;;;;;7.93;6.30;;;21.40;99.90;;;;;;5007303;28;20445;-71
2022/08/18 08:38:45;;;;;;;6.93;5.90;;;21.40;99.90;;;;;;5012406;28;20444;-72
2022/08/18 08:41:37;;;;;;;9.07;7.20;;;21.40;99.90;;;;;;5020955;28;20429;-71
2022/08/18 08:44:31;;;;;;;10.43;7.50;;;21.40;99.90;;;;;;5012775;28;20445;-72
2022/08/18 08:47:21;;;;;;;8.53;7.53;;;21.40;99.90;;;;;;5010846;28;20430;-72
2022/08/18 08:50:11;;;;;;;10.43;9.00;;;21.40;99.90;;;;;;5013994;28;20442;-71
2022/08/18 08:53:01;;;;;;;9.43;8.20;;;21.40;99.90;;;;;;5014215;28;20461;-71
2022/08/18 08:55:49;;;;;;;8.57;6.70;;;21.50;99.90;;;;;;5018286;28;20458;-72
2022/08/18 08:58:42;;;;;;;7.37;6.63;;;21.50;99.90;;;;;;5025638;28;20424;-72
2022/08/18 09:01:35;;;;;;;7.87;7.07;;;21.50;99.90;;;;;;5021911;28;20413;-72
2022/08/18 09:04:37;;;;;;;7.80;7.00;;;21.60;99.90;;;;;;5005079;28;20978;-72
2022/08/18 09:07:35;;;;;;;16.70;7.70;;;21.50;99.90;;;;;;5017560;28;20421;-71
2022/08/18 09:10:49;;;;;;;12.03;8.07;;;21.50;99.90;;;;;;5012502;28;20421;-72
2022/08/18 09:14:20;;;;;;;12.13;8.40;;;21.40;99.90;;;;;;5015394;28;20493;-72
2022/08/18 09:17:38;;;;;;;10.73;7.70;;;21.40;99.90;;;;;;5015026;28;20432;-71
2022/08/18 09:20:45;;;;;;;14.40;9.73;;;21.40;99.90;;;;;;5012517;28;20460;-72
2022/08/18 09:23:39;;;;;;;13.63;9.00;;;21.40;99.90;;;;;;5008215;28;20519;-72
2022/08/18 09:26:39;;;;;;;14.80;8.87;;;21.40;99.90;;;;;;5012560;28;20508;-72
2022/08/18 09:29:50;;;;;;;10.03;8.40;;;21.40;99.90;;;;;;5139088;27;20547;-71
2022/08/18 09:33:03;;;;;;;9.93;8.93;;;21.50;99.90;;;;;;5143004;27;20533;-72
2022/08/18 09:36:10;;;;;;;19.13;9.57;;;21.50;99.90;;;;;;5135950;27;20801;-72
2022/08/18 09:42:12;;;;;;;11.43;8.50;;;21.30;99.90;;;;;;5146919;22;20674;-73
2022/08/18 09:45:03;;;;;;;10.43;9.23;;;21.30;99.90;;;;;;5081508;28;20457;-73
2022/08/18 09:48:01;;;;;;;10.10;8.70;;;21.30;99.90;;;;;;5085405;28;20881;-73
2022/08/18 09:50:57;;;;;;;9.77;8.07;;;21.30;99.90;;;;;;5090472;28;20434;-73
2022/08/18 09:54:13;;;;;;;9.40;8.47;;;21.50;99.90;;;;;;5084052;28;20438;-73
2022/08/18 09:57:21;;;;;;;9.57;8.50;;;21.50;99.90;;;;;;5085942;28;20429;-72
2022/08/18 10:00:32;;;;;;;11.27;10.07;;;21.60;99.90;;;;;;5090413;28;20413;-73
2022/08/18 10:03:24;;;;;;;10.23;9.20;;;21.70;99.90;;;;;;5086835;28;20441;-72
2022/08/18 10:06:19;;;;;;;11.00;9.87;;;21.80;99.90;;;;;;5089334;28;20433;-72
2022/08/18 10:09:25;;;;;;;11.33;9.40;;;21.80;99.90;;;;;;5092613;28;20476;-73
2022/08/18 10:12:32;;;;;;;15.40;8.30;;;21.90;99.90;;;;;;5086957;28;20499;-73
2022/08/18 10:15:30;;;;;;;10.63;9.53;;;22.00;99.90;;;;;;5081988;28;21010;-72
2022/08/18 10:18:40;;;;;;;12.03;9.00;;;22.00;99.90;;;;;;5087629;28;20414;-72
2022/08/18 10:21:29;;;;;;;12.30;9.90;;;22.00;99.90;;;;;;5086943;28;20433;-73
2022/08/18 10:24:18;;;;;;;11.53;9.70;;;22.10;99.90;;;;;;5088317;28;20441;-73
2022/08/18 10:27:06;;;;;;;12.63;10.40;;;22.10;99.90;;;;;;5092572;28;20795;-73
2022/08/18 10:29:55;;;;;;;11.97;9.50;;;22.20;99.90;;;;;;5085707;28;20422;-73
2022/08/18 10:32:44;;;;;;;16.17;10.20;;;22.20;99.90;;;;;;5089956;28;20914;-73
2022/08/18 10:35:57;;;;;;;14.70;11.47;;;22.20;99.90;;;;;;5080869;28;20491;-73
2022/08/18 10:38:52;;;;;;;12.73;10.50;;;22.20;99.90;;;;;;5088608;28;20543;-73
2022/08/18 10:41:45;;;;;;;14.00;10.97;;;22.10;99.90;;;;;;5072250;28;20549;-73
2022/08/18 10:44:37;;;;;;;12.27;11.07;;;22.10;99.90;;;;;;5065886;28;20425;-73
2022/08/18 10:47:24;;;;;;;12.50;11.20;;;22.10;99.90;;;;;;5072224;28;20423;-73
2022/08/18 10:50:20;;;;;;;17.83;12.83;;;22.10;99.90;;;;;;5074399;28;20488;-73
2022/08/18 10:53:13;;;;;;;14.07;11.93;;;22.10;99.90;;;;;;5075207;28;20443;-73
2022/08/18 10:56:09;;;;;;;14.47;13.07;;;22.10;99.90;;;;;;5072547;28;20505;-73
2022/08/18 10:59:10;;;;;;;15.87;12.90;;;22.10;99.90;;;;;;5077170;28;20426;-72
2022/08/18 11:02:06;;;;;;;22.33;12.27;;;22.10;99.90;;;;;;5078109;28;20806;-73
2022/08/18 11:04:53;;;;;;;18.20;14.37;;;22.10;99.90;;;;;;5068543;28;20946;-73
2022/08/18 11:07:42;;;;;;;17.60;15.80;;;22.10;99.90;;;;;;5068192;28;20497;-72
2022/08/18 11:10:39;;;;;;;18.30;16.50;;;22.20;99.90;;;;;;5073045;28;20422;-73
2022/08/18 11:13:31;;;;;;;19.87;16.33;;;22.40;99.90;;;;;;5071445;28;20708;-73
2022/08/18 11:16:28;;;;;;;17.57;15.77;;;22.60;99.90;;;;;;5072864;28;20501;-73
2022/08/18 11:19:16;;;;;;;17.80;16.03;;;22.90;99.90;;;;;;5069859;28;20479;-73
2022/08/18 11:22:02;;;;;;;21.23;17.97;;;23.00;99.90;;;;;;5073233;28;20462;-72
2022/08/18 11:24:48;;;;;;;22.03;19.83;;;23.10;99.90;;;;;;5068684;28;21093;-73
2022/08/18 11:27:35;;;;;;;21.37;19.17;;;23.30;99.90;;;;;;5072512;28;20557;-73
2022/08/18 11:30:26;;;;;;;19.80;17.90;;;23.50;99.90;;;;;;5075086;28;20439;-73
2022/08/18 11:33:15;;;;;;;23.70;21.20;;;23.70;99.90;;;;;;5071389;28;20476;-73
2022/08/18 11:36:02;;;;;;;21.53;19.40;;;23.80;99.90;;;;;;5072233;28;21017;-73
2022/08/18 11:38:54;;;;;;;18.77;16.70;;;23.90;99.90;;;;;;5070063;28;20431;-73
2022/08/18 11:41:47;;;;;;;17.60;15.90;;;24.20;99.90;;;;;;5074147;28;20804;-73
2022/08/18 11:44:37;;;;;;;20.03;18.03;;;24.50;99.90;;;;;;5067129;28;20453;-73
2022/08/18 11:47:24;;;;;;;20.27;18.27;;;24.70;99.90;;;;;;5073358;28;20509;-73
2022/08/18 11:50:13;;;;;;;21.43;18.97;;;24.80;99.90;;;;;;5072413;28;20414;-73
2022/08/18 11:53:13;;;;;;;19.10;17.10;;;24.80;99.90;;;;;;5069961;28;20552;-72
2022/08/18 11:56:05;;;;;;;22.87;20.10;;;24.90;99.90;;;;;;5068077;28;21079;-72
2022/08/18 11:58:54;;;;;;;27.43;24.57;;;25.00;99.90;;;;;;5071673;28;20554;-72
2022/08/18 12:01:50;;;;;;;24.03;21.70;;;24.90;97.10;;;;;;5068299;28;20447;-72
2022/08/18 12:05:01;;;;;;;;;;;;;;;;;;;;;
2022/08/18 12:07:53;;;;;;;21.00;18.13;;;24.60;96.90;;;;;;5068630;28;21009;-72
2022/08/18 12:14:32;;;;;;;20.77;18.67;;;24.70;97.10;;;;;;5063516;28;20509;-73
2022/08/18 12:17:30;;;;;;;19.90;17.83;;;24.70;97.20;;;;;;5070657;28;20430;-73
2022/08/18 12:20:37;;;;;;;21.47;17.63;;;24.80;96.80;;;;;;5070235;28;20928;-73
2022/08/18 12:23:23;;;;;;;24.20;21.70;;;24.90;96.20;;;;;;5063298;28;20473;-72
2022/08/18 12:26:12;;;;;;;26.87;21.27;;;24.90;95.20;;;;;;5071287;28;20434;-71
2022/08/18 12:29:00;;;;;;;26.80;24.00;;;24.80;94.90;;;;;;5069617;28;20874;-72
2022/08/18 12:31:51;;;;;;;23.00;20.60;;;24.90;95.00;;;;;;5071445;28;21055;-72
2022/08/18 12:34:47;;;;;;;24.83;22.47;;;25.00;95.00;;;;;;5063848;28;21058;-73
2022/08/18 12:37:51;;;;;;;28.23;23.40;;;25.00;94.50;;;;;;5076686;28;20819;-72
2022/08/18 12:40:38;;;;;;;30.80;26.70;;;25.10;94.60;;;;;;5073942;28;21379;-72
2022/08/18 12:43:24;;;;;;;28.43;25.57;;;25.10;94.30;;;;;;5067415;28;20474;-71
2022/08/18 12:46:10;;;;;;;29.33;24.30;;;25.10;92.90;;;;;;5075666;28;20795;-71
2022/08/18 12:48:56;;;;;;;25.57;22.87;;;25.10;93.30;;;;;;5070785;28;20473;-72
2022/08/18 12:51:41;;;;;;;39.73;28.47;;;25.20;93.60;;;;;;5073372;28;20426;-71
2022/08/18 12:54:28;;;;;;;30.47;27.37;;;25.40;92.30;;;;;;5073345;28;20964;-72
2022/08/18 12:57:21;;;;;;;38.20;26.87;;;25.50;91.70;;;;;;5074831;28;20931;-72
2022/08/18 13:00:08;;;;;;;37.30;30.87;;;25.60;90.00;;;;;;5077685;28;20617;-71
2022/08/18 13:02:54;;;;;;;28.80;25.97;;;25.60;88.00;;;;;;5064223;28;20461;-71
2022/08/18 13:05:40;;;;;;;34.77;30.77;;;25.70;89.00;;;;;;5076774;28;20429;-71
2022/08/18 13:08:26;;;;;;;34.30;30.67;;;25.70;88.40;;;;;;5068575;28;20489;-72
2022/08/18 13:11:13;;;;;;;31.20;28.10;;;25.90;83.30;;;;;;5074494;28;20464;-72
2022/08/18 13:14:00;;;;;;;29.50;26.70;;;26.20;82.30;;;;;;5063556;28;20987;-71
2022/08/18 13:16:46;;;;;;;38.33;31.20;;;26.50;81.20;;;;;;5073588;28;20430;-71
2022/08/18 13:19:32;;;;;;;34.10;29.47;;;26.60;79.10;;;;;;5072165;28;20422;-72
2022/08/18 13:22:19;;;;;;;31.43;27.70;;;26.70;77.20;;;;;;5065088;28;20479;-71
2022/08/18 13:25:06;;;;;;;32.33;28.93;;;26.70;76.00;;;;;;5070965;28;20418;-72
2022/08/18 13:27:54;;;;;;;29.13;26.23;;;26.80;74.00;;;;;;5071800;28;20464;-72
2022/08/18 13:30:40;;;;;;;29.50;26.60;;;26.90;73.40;;;;;;5070505;28;21016;-71
2022/08/18 13:33:26;;;;;;;29.33;26.43;;;26.90;71.30;;;;;;5065657;28;20998;-72
2022/08/18 13:36:13;;;;;;;30.50;27.30;;;27.10;70.30;;;;;;5079188;28;20505;-71
2022/08/18 13:39:00;;;;;;;30.10;27.03;;;27.10;70.20;;;;;;5075484;28;20420;-72
2022/08/18 13:41:49;;;;;;;26.60;23.87;;;27.10;68.70;;;;;;5075697;28;21124;-72
2022/08/18 13:44:36;;;;;;;29.03;26.13;;;27.10;68.90;;;;;;5067555;28;20438;-72
2022/08/18 13:47:22;;;;;;;27.97;25.07;;;27.20;66.90;;;;;;5072110;28;20419;-72
2022/08/18 13:50:10;;;;;;;24.57;22.17;;;27.40;66.80;;;;;;5071806;28;20474;-71
2022/08/18 13:52:59;;;;;;;30.07;24.70;;;27.60;64.90;;;;;;5067826;28;20609;-72
2022/08/18 13:55:45;;;;;;;24.63;22.30;;;27.80;62.20;;;;;;5086366;28;20800;-72
2022/08/18 13:58:31;;;;;;;25.67;22.43;;;27.90;59.30;;;;;;5069743;28;20431;-72
2022/08/18 14:01:18;;;;;;;21.63;19.33;;;27.80;58.70;;;;;;5070619;28;20422;-72
2022/08/18 14:04:04;;;;;;;25.20;21.67;;;27.80;58.60;;;;;;5067758;28;20958;-72
2022/08/18 14:06:50;;;;;;;21.57;19.20;;;27.90;57.40;;;;;;5074730;28;20434;-72
2022/08/18 14:09:36;;;;;;;21.70;18.27;;;28.10;56.30;;;;;;5075092;28;20478;-72
2022/08/18 14:12:23;;;;;;;20.80;18.80;;;28.10;54.70;;;;;;5057504;28;20619;-72
2022/08/18 14:15:13;;;;;;;17.70;15.97;;;28.10;53.30;;;;;;5073077;28;21979;-72
2022/08/18 14:18:00;;;;;;;17.37;15.67;;;28.10;53.10;;;;;;5071959;28;20485;-72
2022/08/18 14:26:49;;;;;;;18.20;15.50;;;27.70;54.50;;;;;;5076039;28;20454;-72
2022/08/18 14:29:35;;;;;;;15.17;13.53;;;27.60;54.20;;;;;;5079709;28;20478;-72
2022/08/18 14:32:23;;;;;;;14.23;12.93;;;27.60;53.60;;;;;;5065863;28;20505;-71
2022/08/18 14:35:12;;;;;;;13.03;11.83;;;27.50;52.80;;;;;;5067630;28;20429;-72
2022/08/18 14:38:00;;;;;;;13.60;12.40;;;27.30;51.40;;;;;;5077069;28;20427;-72
2022/08/18 14:40:47;;;;;;;15.50;13.43;;;27.30;52.80;;;;;;5071507;28;20524;-71
2022/08/18 14:43:34;;;;;;;15.20;13.13;;;27.20;53.10;;;;;;5068655;28;20484;-72
2022/08/18 14:46:20;;;;;;;15.83;12.93;;;27.20;53.70;;;;;;5068949;28;20443;-71
2022/08/18 14:49:06;;;;;;;13.80;12.33;;;27.20;53.10;;;;;;5072091;28;20647;-72
2022/08/18 14:51:53;;;;;;;14.50;13.00;;;27.10;53.70;;;;;;5072908;28;20602;-73
2022/08/18 14:54:39;;;;;;;15.27;13.87;;;27.00;54.70;;;;;;5072154;28;20418;-72
2022/08/18 14:57:25;;;;;;;13.37;12.17;;;26.90;55.90;;;;;;5077953;28;20430;-72
2022/08/18 15:00:14;;;;;;;14.33;12.83;;;26.90;55.60;;;;;;5077773;28;20552;-72
2022/08/18 15:03:00;;;;;;;15.87;13.40;;;27.00;55.70;;;;;;5067010;28;20466;-72
2022/08/18 15:05:46;;;;;;;13.17;11.90;;;27.00;54.40;;;;;;5069364;28;20426;-71